Time;durP1;ratioP1;P1;durP2;ratioP2;P2;SDS_P1;SDS_P2;PMS_P1;PMS_P2;Temp;Humidity;BMP_temperature;BMP_pressure;BME280_temperature;BME280_humidity;BME280_pressure;Samples;Min_cycle;Max_cycle;Signal;HPM_P1;HPM_P2
2022/01/01 00:01:15;;;;;;;52.42;25.50;;;12.40;99.90;;;;;;5013796;28;20514;-60
2022/01/01 00:03:41;;;;;;;31.20;17.55;;;12.40;99.90;;;;;;5018130;28;20053;-59
2022/01/01 00:06:06;;;;;;;27.73;17.38;;;12.40;99.90;;;;;;5025598;28;20479;-57
2022/01/01 00:08:32;;;;;;;37.13;19.85;;;12.40;99.90;;;;;;5021172;28;20037;-64
2022/01/01 00:10:58;;;;;;;34.60;19.73;;;12.40;99.90;;;;;;5013503;28;20026;-58
2022/01/01 00:13:23;;;;;;;36.78;21.30;;;12.40;99.90;;;;;;5021434;28;20140;-61
2022/01/01 00:15:48;;;;;;;36.05;20.98;;;12.30;99.90;;;;;;5026096;28;20040;-61
2022/01/01 00:18:16;;;;;;;40.40;21.08;;;12.30;99.90;;;;;;5024963;28;20036;-61
2022/01/01 00:20:42;;;;;;;38.97;23.23;;;12.30;99.90;;;;;;5016081;28;20025;-59
2022/01/01 00:23:07;;;;;;;41.47;23.23;;;12.30;99.90;;;;;;5021404;28;20101;-59
2022/01/01 00:25:33;;;;;;;44.17;23.40;;;12.30;99.90;;;;;;5014392;28;20022;-60
2022/01/01 00:27:58;;;;;;;42.72;24.80;;;12.30;99.90;;;;;;5010446;28;20044;-61
2022/01/01 00:30:24;;;;;;;49.45;27.45;;;12.30;99.90;;;;;;5009307;28;20173;-60
2022/01/01 00:32:50;;;;;;;56.88;29.42;;;12.30;99.90;;;;;;5010877;28;20034;-61
2022/01/01 00:35:15;;;;;;;47.28;26.95;;;12.30;99.90;;;;;;5010449;28;20026;-60
2022/01/01 00:37:41;;;;;;;42.90;24.52;;;12.30;99.90;;;;;;5016616;28;20029;-61
2022/01/01 00:40:07;;;;;;;49.83;27.45;;;12.30;99.90;;;;;;5009805;28;20056;-59
2022/01/01 00:42:32;;;;;;;44.60;23.13;;;12.30;99.90;;;;;;5008114;28;20040;-61
2022/01/01 00:44:58;;;;;;;42.22;23.65;;;12.30;99.90;;;;;;5009011;28;20116;-60
2022/01/01 00:47:23;;;;;;;36.92;19.15;;;12.20;99.90;;;;;;5002826;28;20023;-59
2022/01/01 00:49:49;;;;;;;39.67;17.77;;;12.20;99.90;;;;;;4990897;28;20037;-61
2022/01/01 00:52:15;;;;;;;32.75;17.02;;;12.30;99.90;;;;;;5004096;28;20402;-59
2022/01/01 00:54:41;;;;;;;32.00;16.13;;;12.20;99.90;;;;;;5009691;28;20464;-59
2022/01/01 00:57:07;;;;;;;26.42;14.93;;;12.30;99.90;;;;;;5005363;28;20549;-61
2022/01/01 00:59:32;;;;;;;34.88;15.90;;;12.30;99.90;;;;;;5007431;28;20053;-60
2022/01/01 01:01:58;;;;;;;27.63;14.13;;;12.20;99.90;;;;;;5013768;28;20025;-61
2022/01/01 01:04:25;;;;;;;31.35;14.40;;;12.30;99.90;;;;;;5011550;28;20077;-61
2022/01/01 01:06:51;;;;;;;23.00;12.32;;;12.30;99.90;;;;;;5013617;28;20034;-61
2022/01/01 01:09:17;;;;;;;26.83;13.63;;;12.30;99.90;;;;;;5009537;28;20033;-61
2022/01/01 01:11:46;;;;;;;25.67;13.40;;;12.30;99.90;;;;;;5013625;28;20046;-60
2022/01/01 01:14:20;;;;;;;27.38;13.55;;;12.30;99.90;;;;;;5013692;28;20076;-61
2022/01/01 01:16:48;;;;;;;27.00;14.02;;;12.30;99.90;;;;;;5014439;28;20101;-60
2022/01/01 01:19:13;;;;;;;25.08;13.23;;;12.30;99.90;;;;;;5013116;28;20492;-61
2022/01/01 01:21:39;;;;;;;31.98;14.40;;;12.30;99.90;;;;;;5014245;28;20037;-59
2022/01/01 01:24:05;;;;;;;26.92;13.93;;;12.30;99.90;;;;;;4994085;28;20574;-61
2022/01/01 01:26:31;;;;;;;35.80;15.25;;;12.20;99.90;;;;;;5025326;28;20037;-61
2022/01/01 01:28:57;;;;;;;25.67;13.30;;;12.20;99.90;;;;;;5013271;28;20022;-59
2022/01/01 01:31:25;;;;;;;29.63;14.68;;;12.30;99.90;;;;;;5015334;28;20038;-59
2022/01/01 01:33:50;;;;;;;25.58;13.27;;;12.30;99.90;;;;;;5020103;28;20025;-59
2022/01/01 01:36:17;;;;;;;22.70;13.68;;;12.30;99.90;;;;;;5012271;28;20026;-59
2022/01/01 01:38:43;;;;;;;24.58;13.02;;;12.20;99.90;;;;;;5018517;28;20108;-59
2022/01/01 01:41:09;;;;;;;22.58;12.10;;;12.30;99.90;;;;;;5008096;28;20022;-60
2022/01/01 01:43:36;;;;;;;28.40;13.20;;;12.20;99.90;;;;;;5013719;28;20034;-60
2022/01/01 01:46:04;;;;;;;24.17;11.48;;;12.30;99.90;;;;;;5008326;28;20515;-59
2022/01/01 01:48:35;;;;;;;26.92;12.52;;;12.40;99.90;;;;;;5013135;28;20491;-60
2022/01/01 01:51:02;;;;;;;26.27;12.00;;;12.30;99.90;;;;;;5013096;28;20034;-60
2022/01/01 01:53:28;;;;;;;25.02;11.57;;;12.30;99.90;;;;;;5017102;28;20056;-58
2022/01/01 01:55:54;;;;;;;27.65;11.05;;;12.30;99.90;;;;;;5017040;28;20041;-59
2022/01/01 01:58:20;;;;;;;29.58;11.50;;;12.30;99.90;;;;;;5012592;28;20454;-60
2022/01/01 02:03:30;;;;;;;28.38;12.43;;;12.30;99.90;;;;;;5013248;28;20060;-60
2022/01/01 02:05:57;;;;;;;27.75;12.30;;;12.30;99.90;;;;;;5016349;28;20661;-60
2022/01/01 02:08:24;;;;;;;20.80;10.65;;;12.20;99.90;;;;;;5016579;28;20045;-59
2022/01/01 02:10:52;;;;;;;26.67;11.40;;;12.20;99.90;;;;;;5014526;28;20050;-60
2022/01/01 02:13:28;;;;;;;29.35;10.82;;;12.20;99.90;;;;;;5012204;28;20030;-60
2022/01/01 02:18:21;;;;;;;26.20;10.98;;;12.20;99.90;;;;;;5010099;28;20089;-58
2022/01/01 02:20:51;;;;;;;24.52;11.73;;;12.20;99.90;;;;;;5011198;28;20118;-61
2022/01/01 02:23:17;;;;;;;20.80;10.43;;;12.10;99.90;;;;;;5014820;28;20113;-60
2022/01/01 02:25:43;;;;;;;25.98;10.65;;;12.10;99.90;;;;;;5011801;28;20029;-60
2022/01/01 02:28:12;;;;;;;20.25;9.95;;;12.10;99.90;;;;;;5008777;28;20022;-60
2022/01/01 02:30:38;;;;;;;22.20;11.55;;;12.10;99.90;;;;;;5012009;28;20037;-58
2022/01/01 02:33:04;;;;;;;28.10;11.40;;;12.10;99.90;;;;;;4993266;28;20049;-58
2022/01/01 02:35:30;;;;;;;23.67;10.23;;;12.00;99.90;;;;;;4993219;28;20424;-60
2022/01/01 02:37:55;;;;;;;22.90;10.48;;;12.00;99.90;;;;;;5009620;28;20025;-58
2022/01/01 02:40:21;;;;;;;21.95;10.25;;;12.00;99.90;;;;;;5012388;28;20029;-61
2022/01/01 02:42:47;;;;;;;19.50;9.70;;;12.00;99.90;;;;;;5011859;28;20026;-59
2022/01/01 02:45:14;;;;;;;26.63;12.07;;;12.00;99.90;;;;;;5012559;28;20112;-61
2022/01/01 02:47:40;;;;;;;23.77;10.27;;;12.00;99.90;;;;;;5012916;28;20030;-61
2022/01/01 02:50:07;;;;;;;19.40;9.73;;;12.00;99.90;;;;;;5012029;28;20021;-60
2022/01/01 02:52:33;;;;;;;22.98;9.88;;;12.00;99.90;;;;;;5006227;28;20525;-59
2022/01/01 02:54:59;;;;;;;21.05;9.20;;;11.90;99.90;;;;;;5005518;28;20029;-60
2022/01/01 02:57:24;;;;;;;21.35;9.13;;;12.00;99.90;;;;;;5012582;28;20025;-60
2022/01/01 02:59:50;;;;;;;32.70;9.38;;;11.90;99.90;;;;;;5010324;28;20021;-59
2022/01/01 03:02:16;;;;;;;23.65;9.80;;;12.00;99.90;;;;;;5009396;28;20048;-60
2022/01/01 03:04:42;;;;;;;23.70;10.07;;;12.00;99.90;;;;;;5011900;28;20092;-59
2022/01/01 03:07:07;;;;;;;21.02;8.68;;;11.90;99.90;;;;;;5010468;28;20044;-60
2022/01/01 03:09:36;;;;;;;21.27;9.35;;;12.00;99.90;;;;;;5012460;28;20515;-59
2022/01/01 03:12:07;;;;;;;18.27;7.35;;;12.00;99.90;;;;;;5011132;28;20069;-60
2022/01/01 03:14:33;;;;;;;22.98;8.95;;;12.00;99.90;;;;;;5011229;28;20034;-60
2022/01/01 03:16:59;;;;;;;21.25;8.07;;;12.00;99.90;;;;;;5010673;28;20036;-61
2022/01/01 03:19:25;;;;;;;22.35;7.47;;;12.00;99.90;;;;;;5013220;28;20117;-60
2022/01/01 03:21:51;;;;;;;20.38;7.18;;;12.00;99.90;;;;;;5018297;28;20017;-60
2022/01/01 03:24:17;;;;;;;19.95;7.38;;;12.00;99.90;;;;;;5009891;28;20022;-60
2022/01/01 03:26:43;;;;;;;19.65;7.57;;;12.10;99.90;;;;;;5011192;28;20034;-59
2022/01/01 03:29:10;;;;;;;20.98;8.15;;;12.10;99.90;;;;;;5019537;28;20037;-60
2022/01/01 03:31:36;;;;;;;15.27;6.70;;;12.00;99.90;;;;;;5010981;28;20277;-59
2022/01/01 03:34:02;;;;;;;20.92;8.23;;;12.00;99.90;;;;;;5010595;28;20057;-60
2022/01/01 03:36:27;;;;;;;20.17;7.43;;;12.00;99.90;;;;;;5010581;28;20053;-61
2022/01/01 03:38:54;;;;;;;22.10;8.00;;;12.00;99.90;;;;;;5009617;28;20053;-58
2022/01/01 03:41:20;;;;;;;21.10;8.27;;;12.00;99.90;;;;;;5002626;28;20019;-60
2022/01/01 03:43:46;;;;;;;23.33;7.70;;;12.00;99.90;;;;;;5007997;28;20045;-59
2022/01/01 03:46:12;;;;;;;16.48;7.38;;;12.00;99.90;;;;;;5014714;28;20421;-60
2022/01/01 03:48:37;;;;;;;18.85;7.40;;;12.00;99.90;;;;;;5011901;28;20095;-58
2022/01/01 03:51:03;;;;;;;21.85;7.43;;;12.00;99.90;;;;;;5008300;28;20021;-60
2022/01/01 03:53:28;;;;;;;19.42;7.70;;;11.90;99.90;;;;;;5010162;28;20036;-60
2022/01/01 03:55:54;;;;;;;21.95;8.63;;;11.90;99.90;;;;;;5012718;28;20022;-53
2022/01/01 03:58:20;;;;;;;17.05;8.13;;;11.90;99.90;;;;;;5013034;28;20029;-59
2022/01/01 04:00:46;;;;;;;15.57;7.75;;;11.90;99.90;;;;;;5009841;28;20113;-60
2022/01/01 04:03:14;;;;;;;20.00;7.90;;;11.90;99.90;;;;;;5014417;28;20099;-60
2022/01/01 04:05:40;;;;;;;24.08;8.45;;;11.90;99.90;;;;;;5011463;28;20402;-58
2022/01/01 04:08:07;;;;;;;19.38;7.70;;;11.90;99.90;;;;;;5005749;28;20033;-60
2022/01/01 04:10:34;;;;;;;15.93;7.90;;;11.90;99.90;;;;;;5009137;28;20042;-60
2022/01/01 04:13:01;;;;;;;19.88;7.53;;;11.90;99.90;;;;;;5006523;28;20503;-60
2022/01/01 04:15:28;;;;;;;21.85;7.72;;;11.90;99.90;;;;;;5010541;28;20492;-60
2022/01/01 04:17:58;;;;;;;20.90;7.22;;;11.80;99.90;;;;;;5001237;28;20101;-57
2022/01/01 04:20:24;;;;;;;17.95;7.68;;;11.80;99.90;;;;;;5004295;28;20029;-59
2022/01/01 04:22:55;;;;;;;17.15;7.13;;;11.80;99.90;;;;;;5002239;28;20159;-58
2022/01/01 04:25:21;;;;;;;16.13;6.43;;;11.80;99.90;;;;;;5008690;28;20033;-60
2022/01/01 04:27:50;;;;;;;19.48;6.50;;;11.80;99.90;;;;;;5009676;28;20042;-58
2022/01/01 04:30:17;;;;;;;13.77;5.65;;;11.80;99.90;;;;;;5010399;28;20033;-60
2022/01/01 04:32:43;;;;;;;13.70;6.18;;;11.80;99.90;;;;;;5009978;28;20028;-60
2022/01/01 04:35:10;;;;;;;15.90;6.43;;;11.80;99.90;;;;;;5007190;28;20030;-59
2022/01/01 04:37:37;;;;;;;16.85;5.63;;;11.80;99.90;;;;;;5009176;28;20030;-59
2022/01/01 04:40:06;;;;;;;15.02;6.28;;;11.70;99.90;;;;;;4995444;28;20109;-58
2022/01/01 04:42:31;;;;;;;17.42;7.25;;;11.70;99.90;;;;;;5008898;28;20029;-60
2022/01/01 04:44:58;;;;;;;16.67;5.63;;;11.70;99.90;;;;;;5010094;28;20034;-60
2022/01/01 04:47:24;;;;;;;13.77;5.05;;;11.70;99.90;;;;;;4999965;28;20491;-60
2022/01/01 04:49:50;;;;;;;16.33;5.72;;;11.70;99.90;;;;;;5028054;28;20030;-58
2022/01/01 04:52:16;;;;;;;18.50;6.03;;;11.70;99.90;;;;;;5010272;28;20113;-60
2022/01/01 04:54:43;;;;;;;13.65;5.90;;;11.70;99.90;;;;;;5001267;28;20065;-59
2022/01/01 04:57:09;;;;;;;19.52;5.80;;;11.60;99.90;;;;;;5009525;28;20097;-60
2022/01/01 04:59:35;;;;;;;18.58;6.05;;;11.60;99.90;;;;;;5003612;28;20105;-60
2022/01/01 05:02:01;;;;;;;18.65;6.25;;;11.70;99.90;;;;;;5005324;28;20022;-61
2022/01/01 05:04:27;;;;;;;18.63;6.45;;;11.60;99.90;;;;;;5006966;28;20030;-60
2022/01/01 05:06:52;;;;;;;15.25;5.70;;;11.60;99.90;;;;;;5000681;28;20037;-59
2022/01/01 05:09:19;;;;;;;16.10;6.28;;;11.60;99.90;;;;;;5005546;28;20045;-59
2022/01/01 05:11:46;;;;;;;12.77;6.07;;;11.60;99.90;;;;;;5008074;28;20029;-60
2022/01/01 05:14:12;;;;;;;14.43;5.93;;;11.60;99.90;;;;;;5008355;28;20112;-60
2022/01/01 05:16:37;;;;;;;14.73;6.63;;;11.60;99.90;;;;;;4999829;28;20022;-60
2022/01/01 05:19:03;;;;;;;16.40;5.63;;;11.60;99.90;;;;;;5006738;28;20026;-60
2022/01/01 05:21:32;;;;;;;12.30;5.47;;;11.60;99.90;;;;;;5008535;28;20105;-60
2022/01/01 05:23:58;;;;;;;10.90;4.18;;;11.60;99.90;;;;;;5001555;28;20022;-59
2022/01/01 05:26:24;;;;;;;12.50;4.50;;;11.60;99.90;;;;;;5001852;28;20450;-60
2022/01/01 05:28:50;;;;;;;13.85;5.35;;;11.60;99.90;;;;;;5007726;28;20096;-59
2022/01/01 05:31:19;;;;;;;16.42;4.45;;;11.60;99.90;;;;;;5008882;28;20042;-60
2022/01/01 05:33:49;;;;;;;14.23;4.75;;;11.60;99.90;;;;;;5006375;28;20499;-60
2022/01/01 05:36:15;;;;;;;11.23;4.22;;;11.60;99.90;;;;;;5008598;28;20041;-59
2022/01/01 05:38:41;;;;;;;12.18;4.22;;;11.60;99.90;;;;;;5008718;28;20487;-59
2022/01/01 05:41:07;;;;;;;11.70;3.50;;;11.60;99.90;;;;;;5009921;28;20447;-60
2022/01/01 05:43:33;;;;;;;16.30;3.83;;;11.60;99.90;;;;;;5004416;28;20091;-60
2022/01/01 05:45:58;;;;;;;16.00;4.13;;;11.60;99.90;;;;;;5008722;28;20129;-58
2022/01/01 05:48:24;;;;;;;16.58;4.15;;;11.60;99.90;;;;;;5011953;28;20033;-60
2022/01/01 05:50:49;;;;;;;11.82;4.15;;;11.60;99.90;;;;;;5007522;28;20755;-61
2022/01/01 05:53:16;;;;;;;6.47;3.40;;;11.60;99.90;;;;;;5004335;28;20031;-59
2022/01/01 05:55:41;;;;;;;11.90;4.35;;;11.60;99.90;;;;;;5010770;28;20104;-59
2022/01/01 05:58:07;;;;;;;11.35;4.55;;;11.60;99.90;;;;;;5010212;28;20440;-58
2022/01/01 06:00:34;;;;;;;17.58;3.92;;;11.60;99.90;;;;;;5006025;28;20026;-60
2022/01/01 06:02:59;;;;;;;12.20;3.70;;;11.60;99.90;;;;;;5012252;28;20480;-61
2022/01/01 06:05:26;;;;;;;19.95;5.05;;;11.60;99.90;;;;;;5011143;28;20038;-60
2022/01/01 06:07:53;;;;;;;12.93;4.25;;;11.60;99.90;;;;;;5002693;28;20057;-59
2022/01/01 06:10:19;;;;;;;11.55;3.60;;;11.60;99.90;;;;;;5005983;28;20054;-60
2022/01/01 06:12:45;;;;;;;11.27;3.50;;;11.60;99.90;;;;;;5010365;28;20068;-60
2022/01/01 06:15:10;;;;;;;15.10;3.92;;;11.70;99.90;;;;;;5003550;28;20401;-59
2022/01/01 06:17:36;;;;;;;10.20;3.33;;;11.70;99.90;;;;;;5009949;28;20022;-60
2022/01/01 06:20:02;;;;;;;13.05;3.38;;;11.70;99.90;;;;;;5006446;28;20250;-60
2022/01/01 06:22:28;;;;;;;14.80;4.05;;;11.70;99.90;;;;;;5001522;28;20045;-60
2022/01/01 06:24:54;;;;;;;14.43;3.70;;;11.70;99.90;;;;;;5010225;28;20487;-60
2022/01/01 06:27:19;;;;;;;10.10;3.22;;;11.70;99.90;;;;;;5011990;28;20037;-60
2022/01/01 06:29:45;;;;;;;10.82;3.35;;;11.70;99.90;;;;;;5003212;28;20026;-60
2022/01/01 06:32:12;;;;;;;16.85;4.25;;;11.70;99.90;;;;;;5010025;28;20018;-61
2022/01/01 06:34:37;;;;;;;11.93;2.90;;;11.70;99.90;;;;;;5007769;28;20061;-61
2022/01/01 06:37:03;;;;;;;14.98;4.70;;;11.70;99.90;;;;;;5002358;28;20476;-60
2022/01/01 06:39:29;;;;;;;12.18;3.58;;;11.70;99.90;;;;;;5006192;28;20068;-60
2022/01/01 06:41:54;;;;;;;10.57;3.13;;;11.70;99.90;;;;;;5011663;28;20504;-61
2022/01/01 06:44:20;;;;;;;10.45;2.85;;;11.70;99.90;;;;;;5011898;28;20491;-60
2022/01/01 06:46:45;;;;;;;16.80;3.92;;;11.70;99.90;;;;;;5013181;28;20033;-61
2022/01/01 06:49:11;;;;;;;16.90;3.30;;;11.60;99.90;;;;;;5001921;28;20066;-60
2022/01/01 06:51:36;;;;;;;14.05;3.20;;;11.70;99.90;;;;;;5009464;28;21207;-59
2022/01/01 06:54:04;;;;;;;9.63;3.20;;;11.70;99.90;;;;;;5011328;28;20048;-59
2022/01/01 06:56:29;;;;;;;9.95;3.00;;;11.70;99.90;;;;;;5003634;28;20026;-60
2022/01/01 06:58:55;;;;;;;11.98;2.90;;;11.60;99.90;;;;;;5010108;28;20026;-61
2022/01/01 07:01:20;;;;;;;13.10;3.22;;;11.70;99.90;;;;;;5010004;28;20030;-60
2022/01/01 07:03:46;;;;;;;9.65;3.53;;;11.60;99.90;;;;;;5007119;28;20041;-59
2022/01/01 07:06:11;;;;;;;9.60;3.05;;;11.60;99.90;;;;;;5011099;28;20029;-61
2022/01/01 07:08:37;;;;;;;8.65;2.92;;;11.70;99.90;;;;;;5006557;28;20049;-60
2022/01/01 07:11:03;;;;;;;7.40;2.42;;;11.70;99.90;;;;;;5011331;28;20042;-60
2022/01/01 07:13:28;;;;;;;9.77;3.08;;;11.80;99.90;;;;;;5008968;28;20033;-60
2022/01/01 07:15:54;;;;;;;9.90;3.42;;;11.70;99.90;;;;;;5000273;28;20029;-60
2022/01/01 07:18:19;;;;;;;17.55;3.15;;;11.70;99.90;;;;;;5008429;28;20043;-60
2022/01/01 07:20:45;;;;;;;13.90;3.10;;;11.80;99.90;;;;;;5011559;28;20034;-60
2022/01/01 07:23:11;;;;;;;13.32;2.95;;;11.70;99.90;;;;;;5009099;28;20030;-61
2022/01/01 07:25:36;;;;;;;15.45;3.33;;;11.70;99.90;;;;;;5006789;28;20080;-60
2022/01/01 07:28:02;;;;;;;9.55;3.25;;;11.70;99.90;;;;;;5007772;28;20030;-58
2022/01/01 07:30:28;;;;;;;6.50;2.80;;;11.70;99.90;;;;;;5009619;28;20443;-60
2022/01/01 07:32:54;;;;;;;13.60;3.05;;;11.80;99.90;;;;;;5006146;28;20026;-59
2022/01/01 07:35:21;;;;;;;11.50;2.90;;;11.70;99.90;;;;;;5001642;28;20022;-60
2022/01/01 07:37:47;;;;;;;10.30;3.03;;;11.70;99.90;;;;;;5009817;28;20500;-60
2022/01/01 07:40:14;;;;;;;13.35;3.00;;;11.70;99.90;;;;;;5004975;28;20515;-60
2022/01/01 07:42:41;;;;;;;11.95;3.13;;;11.70;99.90;;;;;;5009944;28;20066;-60
2022/01/01 07:45:07;;;;;;;12.70;2.35;;;11.70;99.90;;;;;;5010535;28;20643;-59
2022/01/01 07:47:33;;;;;;;13.15;2.85;;;11.70;99.90;;;;;;5000486;28;20064;-59
2022/01/01 07:49:58;;;;;;;15.20;2.67;;;11.70;99.90;;;;;;5007335;28;20062;-60
2022/01/01 07:52:24;;;;;;;10.95;2.95;;;11.70;99.90;;;;;;5009372;28;20026;-60
2022/01/01 07:54:50;;;;;;;6.60;2.22;;;11.80;99.90;;;;;;5008165;28;20460;-60
2022/01/01 07:57:15;;;;;;;8.75;2.63;;;11.80;99.90;;;;;;5007407;28;20120;-60
2022/01/01 07:59:41;;;;;;;9.95;3.70;;;11.80;99.90;;;;;;5005531;28;20021;-59
2022/01/01 08:02:10;;;;;;;9.68;2.70;;;11.80;99.90;;;;;;5012215;28;20026;-60
2022/01/01 08:04:35;;;;;;;8.80;2.88;;;11.80;99.90;;;;;;5008191;28;20510;-60
2022/01/01 08:07:01;;;;;;;12.02;2.50;;;11.80;99.90;;;;;;5008759;28;20034;-59
2022/01/01 08:09:28;;;;;;;10.38;2.80;;;11.80;99.90;;;;;;5008798;28;20033;-59
2022/01/01 08:11:54;;;;;;;8.98;2.88;;;11.80;99.90;;;;;;5007982;28;20026;-60
2022/01/01 08:14:21;;;;;;;10.35;2.70;;;11.80;99.90;;;;;;5004421;28;20025;-60
2022/01/01 08:16:56;;;;;;;7.00;2.85;;;11.90;99.90;;;;;;5009180;28;20061;-59
2022/01/01 08:19:22;;;;;;;8.23;2.58;;;11.80;99.90;;;;;;5009780;28;20088;-60
2022/01/01 08:21:48;;;;;;;6.53;2.42;;;11.90;99.90;;;;;;5004436;28;20510;-58
2022/01/01 08:24:13;;;;;;;16.40;4.75;;;11.90;99.90;;;;;;4997141;28;20037;-59
2022/01/01 08:26:39;;;;;;;7.80;2.85;;;11.90;99.90;;;;;;5007503;28;20034;-60
2022/01/01 08:29:04;;;;;;;7.82;2.63;;;11.90;99.90;;;;;;5007853;28;20030;-60
2022/01/01 08:31:30;;;;;;;6.18;2.72;;;12.00;99.90;;;;;;5005619;28;20043;-60
2022/01/01 08:33:56;;;;;;;5.45;2.13;;;12.00;99.90;;;;;;5005404;28;20505;-60
2022/01/01 08:36:22;;;;;;;14.13;3.67;;;12.00;99.90;;;;;;5023972;28;20500;-59
2022/01/01 08:38:48;;;;;;;12.40;3.40;;;12.00;99.90;;;;;;5008713;28;20041;-60
2022/01/01 08:41:13;;;;;;;9.50;3.20;;;12.10;99.90;;;;;;5005040;28;20037;-60
2022/01/01 08:43:39;;;;;;;6.93;3.60;;;12.10;99.90;;;;;;5001450;28;20033;-60
2022/01/01 08:46:07;;;;;;;9.32;3.17;;;12.20;99.90;;;;;;5006931;28;20038;-58
2022/01/01 08:48:33;;;;;;;7.30;2.83;;;12.20;99.90;;;;;;5003331;28;20530;-58
2022/01/01 08:50:59;;;;;;;13.93;3.40;;;12.30;99.90;;;;;;5001944;28;20037;-59
2022/01/01 08:53:24;;;;;;;7.65;2.78;;;12.40;99.90;;;;;;4996309;28;20648;-58
2022/01/01 08:55:51;;;;;;;10.70;2.83;;;12.40;99.90;;;;;;5009532;28;20128;-58
2022/01/01 08:58:16;;;;;;;9.20;3.15;;;12.40;99.90;;;;;;5007145;28;20084;-59
2022/01/01 09:00:42;;;;;;;10.52;3.42;;;12.50;99.90;;;;;;5009204;28;20030;-59
2022/01/01 09:03:08;;;;;;;6.85;2.70;;;12.60;99.90;;;;;;5008065;28;20371;-58
2022/01/01 09:05:33;;;;;;;7.90;3.05;;;12.60;99.90;;;;;;5009858;28;20495;-58
2022/01/01 09:07:59;;;;;;;8.57;3.13;;;12.70;99.90;;;;;;5008317;28;20686;-59
2022/01/01 09:10:25;;;;;;;8.65;2.65;;;12.80;99.90;;;;;;5009092;28;20545;-59
2022/01/01 09:12:50;;;;;;;9.57;2.80;;;12.90;99.90;;;;;;5005309;28;20045;-59
2022/01/01 09:15:16;;;;;;;5.63;2.72;;;12.90;99.90;;;;;;5005727;28;20029;-59
2022/01/01 09:17:41;;;;;;;10.00;2.95;;;12.90;99.90;;;;;;5007679;28;20030;-59
2022/01/01 09:20:07;;;;;;;10.05;3.05;;;12.90;99.90;;;;;;5012094;28;20101;-60
2022/01/01 09:22:33;;;;;;;6.78;2.63;;;12.90;99.90;;;;;;5011929;28;20018;-60
2022/01/01 09:24:58;;;;;;;7.15;3.08;;;12.90;99.90;;;;;;5012490;28;20026;-59
2022/01/01 09:27:24;;;;;;;6.97;2.33;;;12.90;99.90;;;;;;5012780;28;20034;-60
2022/01/01 09:29:50;;;;;;;10.52;2.83;;;12.90;99.90;;;;;;5013106;28;20631;-59
2022/01/01 09:32:15;;;;;;;6.75;3.05;;;12.90;99.90;;;;;;5013149;28;20499;-59
2022/01/01 09:34:41;;;;;;;6.82;2.63;;;13.00;99.90;;;;;;5012003;28;20491;-59
2022/01/01 09:37:08;;;;;;;8.93;3.05;;;13.00;99.90;;;;;;5002583;28;20439;-60
2022/01/01 09:39:34;;;;;;;10.30;3.63;;;13.10;99.90;;;;;;5010544;28;20030;-60
2022/01/01 09:42:01;;;;;;;7.97;2.92;;;13.20;99.90;;;;;;5013502;28;20527;-58
2022/01/01 09:44:34;;;;;;;7.70;3.45;;;13.30;99.90;;;;;;5013113;28;20045;-60
2022/01/01 09:47:00;;;;;;;6.65;2.65;;;13.40;99.90;;;;;;5014449;28;20066;-60
2022/01/01 09:49:27;;;;;;;8.95;2.90;;;13.50;99.90;;;;;;5014184;28;20475;-58
2022/01/01 09:51:53;;;;;;;7.47;3.45;;;13.50;99.90;;;;;;5016898;28;20034;-60
2022/01/01 09:54:18;;;;;;;9.07;2.92;;;13.60;99.90;;;;;;5015021;28;20038;-60
2022/01/01 09:56:44;;;;;;;6.30;2.90;;;13.70;99.90;;;;;;5014282;28;20034;-59
2022/01/01 09:59:13;;;;;;;10.40;3.25;;;13.70;99.90;;;;;;5013483;28;20373;-61
2022/01/01 10:01:39;;;;;;;8.52;3.00;;;13.70;99.90;;;;;;5011750;28;20495;-59
2022/01/01 10:04:13;;;;;;;13.95;6.05;;;13.80;99.90;;;;;;5012333;28;20107;-60
2022/01/01 10:06:38;;;;;;;11.40;4.95;;;13.90;99.90;;;;;;5005660;28;20049;-60
2022/01/01 10:09:06;;;;;;;6.32;3.65;;;13.90;99.90;;;;;;5008300;28;20404;-60
2022/01/01 10:11:33;;;;;;;7.63;2.45;;;14.00;99.90;;;;;;5011258;28;20612;-60
2022/01/01 10:14:03;;;;;;;8.13;3.33;;;13.90;99.90;;;;;;5011762;28;20034;-56
2022/01/01 10:16:28;;;;;;;6.78;2.60;;;13.90;99.90;;;;;;5006899;28;20069;-59
2022/01/01 10:18:54;;;;;;;14.63;3.53;;;13.90;99.90;;;;;;5006618;28;20057;-59
2022/01/01 10:21:27;;;;;;;9.15;4.30;;;14.00;99.90;;;;;;5007614;28;20037;-60
2022/01/01 10:23:55;;;;;;;12.93;6.78;;;14.00;99.90;;;;;;5007139;28;20200;-60
2022/01/01 10:29:10;;;;;;;25.92;12.07;;;14.00;99.90;;;;;;5008526;28;20037;-60
2022/01/01 10:31:37;;;;;;;19.02;11.07;;;14.00;99.90;;;;;;5011562;28;20152;-60
2022/01/01 10:34:12;;;;;;;15.68;9.77;;;14.00;99.90;;;;;;5005973;28;20034;-60
2022/01/01 10:36:38;;;;;;;10.55;4.05;;;13.90;99.90;;;;;;5007058;28;20451;-60
2022/01/01 10:39:08;;;;;;;8.90;5.10;;;14.00;99.90;;;;;;5011900;28;20026;-60
2022/01/01 10:41:53;;;;;;;47.38;22.95;;;14.00;99.90;;;;;;5000096;28;20033;-60
2022/01/01 10:44:34;;;;;;;11.85;7.68;;;14.10;99.90;;;;;;5009249;28;20057;-59
2022/01/01 10:47:05;;;;;;;21.88;11.60;;;14.10;99.90;;;;;;5002826;28;20080;-60
2022/01/01 10:52:22;;;;;;;97.38;42.42;;;14.10;99.90;;;;;;5011376;28;20033;-59
2022/01/01 10:55:07;;;;;;;74.68;31.23;;;14.00;99.90;;;;;;5010915;28;20034;-59
2022/01/01 10:57:34;;;;;;;54.60;21.40;;;13.90;99.90;;;;;;5010538;28;20053;-59
2022/01/01 11:00:20;;;;;;;35.60;15.02;;;13.80;99.90;;;;;;5011575;28;20033;-60
2022/01/01 11:02:55;;;;;;;42.85;18.27;;;13.80;99.90;;;;;;5010008;28;20041;-59
2022/01/01 11:05:27;;;;;;;19.85;8.55;;;13.70;99.90;;;;;;5011774;28;20508;-61
2022/01/01 11:07:53;;;;;;;8.23;3.42;;;13.70;99.90;;;;;;5007384;28;20456;-60
2022/01/01 11:10:20;;;;;;;8.35;3.33;;;13.70;99.90;;;;;;5009583;28;20057;-60
2022/01/01 11:12:46;;;;;;;7.78;2.47;;;13.80;99.90;;;;;;5001120;28;20045;-60
2022/01/01 11:15:12;;;;;;;7.53;2.90;;;13.90;99.90;;;;;;5003457;28;20033;-60
2022/01/01 11:17:41;;;;;;;11.32;2.53;;;13.90;99.90;;;;;;5004106;28;20060;-60
2022/01/01 11:20:08;;;;;;;8.23;2.92;;;14.00;99.90;;;;;;5010659;28;20021;-60
2022/01/01 11:22:34;;;;;;;5.15;2.53;;;14.10;99.90;;;;;;4990632;28;20042;-60
2022/01/01 11:25:01;;;;;;;7.13;4.30;;;14.20;99.90;;;;;;5009279;28;20053;-60
2022/01/01 11:27:27;;;;;;;7.45;2.85;;;14.20;99.90;;;;;;5007108;28;20029;-60
2022/01/01 11:29:59;;;;;;;6.63;2.47;;;14.20;99.90;;;;;;5008947;28;20044;-60
2022/01/01 11:32:38;;;;;;;8.75;2.80;;;14.40;99.90;;;;;;5011123;28;20120;-60
2022/01/01 11:35:08;;;;;;;6.22;2.90;;;14.30;99.90;;;;;;5014421;28;20022;-60
2022/01/01 11:37:52;;;;;;;5.63;2.28;;;14.30;99.90;;;;;;5015681;28;20041;-61
2022/01/01 11:40:18;;;;;;;;;;;14.30;99.90;;;;;;5016956;28;20018;-61
2022/01/01 11:42:45;;;;;;;7.45;3.72;;;14.30;99.90;;;;;;5009493;28;20056;-61
2022/01/01 11:45:13;;;;;;;10.52;3.55;;;14.30;99.90;;;;;;5002678;28;20041;-60
2022/01/01 11:47:39;;;;;;;6.53;4.43;;;14.20;99.90;;;;;;4996394;28;20119;-60
2022/01/01 11:50:05;;;;;;;9.40;5.35;;;14.10;99.90;;;;;;5002690;28;20032;-61
2022/01/01 11:52:40;;;;;;;13.77;7.82;;;14.10;99.90;;;;;;5005492;28;20496;-60
2022/01/01 11:55:14;;;;;;;8.75;4.10;;;14.10;99.90;;;;;;5009927;28;20029;-61
2022/01/01 11:57:59;;;;;;;5.60;2.90;;;14.10;99.90;;;;;;5007521;28;20030;-61
2022/01/01 12:00:24;;;;;;;9.93;4.72;;;14.10;99.90;;;;;;5006529;28;20553;-60
2022/01/01 12:03:09;;;;;;;10.43;3.83;;;14.10;99.90;;;;;;5007257;28;20069;-59
2022/01/01 12:05:35;;;;;;;6.03;3.20;;;14.10;99.90;;;;;;5009662;28;20021;-60
2022/01/01 12:08:01;;;;;;;4.88;2.80;;;14.10;99.90;;;;;;5007114;28;20029;-60
2022/01/01 12:10:32;;;;;;;7.18;2.92;;;14.10;99.90;;;;;;5003763;28;20053;-61
2022/01/01 12:13:12;;;;;;;6.28;3.20;;;14.10;99.90;;;;;;5021118;28;20023;-60
2022/01/01 12:15:48;;;;;;;5.38;2.10;;;14.20;99.90;;;;;;5005225;28;20034;-62
2022/01/01 12:18:19;;;;;;;4.75;2.42;;;14.20;99.90;;;;;;5004760;28;20070;-61
2022/01/01 12:20:51;;;;;;;7.50;2.60;;;14.20;99.90;;;;;;5000821;28;20045;-61
2022/01/01 12:23:21;;;;;;;6.07;3.15;;;14.20;99.90;;;;;;5009653;28;20057;-62
2022/01/01 12:25:48;;;;;;;4.20;2.20;;;14.20;99.90;;;;;;5010251;28;20113;-62
2022/01/01 12:28:21;;;;;;;7.97;2.33;;;14.20;99.90;;;;;;5008583;28;20018;-61
2022/01/01 12:30:52;;;;;;;5.25;2.97;;;14.20;99.90;;;;;;5010083;28;20030;-61
2022/01/01 12:33:42;;;;;;;8.32;2.70;;;14.20;99.90;;;;;;5009939;28;20120;-62
2022/01/01 12:36:15;;;;;;;10.88;4.30;;;14.20;99.90;;;;;;5005614;28;20019;-62
2022/01/01 12:38:51;;;;;;;6.38;3.08;;;14.20;99.90;;;;;;5009830;28;20029;-62
2022/01/01 12:41:19;;;;;;;6.85;2.53;;;14.10;99.90;;;;;;5006596;28;20046;-62
2022/01/01 12:43:57;;;;;;;6.85;3.28;;;14.10;99.90;;;;;;5000724;28;20030;-63
2022/01/01 12:46:29;;;;;;;4.05;2.40;;;13.90;99.90;;;;;;5012532;28;20082;-63
2022/01/01 12:48:59;;;;;;;4.40;2.78;;;13.90;99.90;;;;;;5020056;28;20029;-61